sensor_id;sensor_type;location;lat;lon;timestamp;pressure;altitude;pressure_sealevel;temperature;humidity
29315;BME280;16320;53.954;9.506;2024-03-29T00:01:33;99164.81;;;7.13;100.00
29315;BME280;16320;53.954;9.506;2024-03-29T00:03:59;99146.00;;;7.08;100.00
29315;BME280;16320;53.954;9.506;2024-03-29T00:06:26;99145.59;;;7.00;100.00
29315;BME280;16320;53.954;9.506;2024-03-29T00:08:52;99143.00;;;7.00;100.00
29315;BME280;16320;53.954;9.506;2024-03-29T00:11:19;99122.88;;;7.02;100.00
29315;BME280;16320;53.954;9.506;2024-03-29T00:13:46;99110.19;;;6.96;100.00
29315;BME280;16320;53.954;9.506;2024-03-29T00:16:12;99105.06;;;6.94;100.00
29315;BME280;16320;53.954;9.506;2024-03-29T00:18:39;99102.47;;;6.94;100.00
29315;BME280;16320;53.954;9.506;2024-03-29T00:21:05;99103.38;;;6.93;100.00
29315;BME280;16320;53.954;9.506;2024-03-29T00:23:32;99098.44;;;6.89;100.00
29315;BME280;16320;53.954;9.506;2024-03-29T00:25:58;99094.19;;;6.88;100.00
29315;BME280;16320;53.954;9.506;2024-03-29T00:28:24;99086.16;;;6.91;100.00
29315;BME280;16320;53.954;9.506;2024-03-29T00:30:51;99087.09;;;6.90;100.00
29315;BME280;16320;53.954;9.506;2024-03-29T00:33:17;99089.88;;;6.87;100.00
29315;BME280;16320;53.954;9.506;2024-03-29T00:35:44;99086.72;;;6.82;100.00
29315;BME280;16320;53.954;9.506;2024-03-29T00:38:10;99091.94;;;6.82;100.00
29315;BME280;16320;53.954;9.506;2024-03-29T00:40:36;99100.50;;;6.84;100.00
29315;BME280;16320;53.954;9.506;2024-03-29T00:43:03;99094.66;;;6.80;100.00
29315;BME280;16320;53.954;9.506;2024-03-29T00:45:30;99091.94;;;6.82;100.00
29315;BME280;16320;53.954;9.506;2024-03-29T00:47:56;99094.66;;;6.80;100.00
29315;BME280;16320;53.954;9.506;2024-03-29T00:50:23;99094.66;;;6.80;100.00
29315;BME280;16320;53.954;9.506;2024-03-29T00:52:49;99093.63;;;6.83;100.00
29315;BME280;16320;53.954;9.506;2024-03-29T00:55:16;99087.75;;;6.79;100.00
29315;BME280;16320;53.954;9.506;2024-03-29T00:57:42;99097.16;;;6.82;100.00
29315;BME280;16320;53.954;9.506;2024-03-29T01:00:10;99094.47;;;6.83;100.00
29315;BME280;16320;53.954;9.506;2024-03-29T01:02:36;99088.41;;;6.83;100.00
29315;BME280;16320;53.954;9.506;2024-03-29T01:05:05;99087.75;;;6.79;100.00
29315;BME280;16320;53.954;9.506;2024-03-29T01:07:32;99081.50;;;6.82;100.00
29315;BME280;16320;53.954;9.506;2024-03-29T01:09:58;99074.81;;;6.77;100.00
29315;BME280;16320;53.954;9.506;2024-03-29T01:12:25;99073.13;;;6.76;100.00
29315;BME280;16320;53.954;9.506;2024-03-29T01:14:51;99071.44;;;6.75;100.00
29315;BME280;16320;53.954;9.506;2024-03-29T01:17:17;99076.66;;;6.75;100.00
29315;BME280;16320;53.954;9.506;2024-03-29T01:19:44;99068.66;;;6.78;100.00
29315;BME280;16320;53.954;9.506;2024-03-29T01:22:10;99071.44;;;6.75;100.00
29315;BME280;16320;53.954;9.506;2024-03-29T01:24:36;99079.28;;;6.75;100.00
29315;BME280;16320;53.954;9.506;2024-03-29T01:27:03;99075.38;;;6.68;100.00
29315;BME280;16320;53.954;9.506;2024-03-29T01:29:29;99070.34;;;6.65;100.00
29315;BME280;16320;53.954;9.506;2024-03-29T01:31:55;99068.84;;;6.61;100.00
29315;BME280;16320;53.954;9.506;2024-03-29T01:34:22;99080.69;;;6.67;100.00
29315;BME280;16320;53.954;9.506;2024-03-29T01:36:48;99082.66;;;6.63;100.00
29315;BME280;16320;53.954;9.506;2024-03-29T01:39:14;99077.63;;;6.60;100.00
29315;BME280;16320;53.954;9.506;2024-03-29T01:41:40;99075.94;;;6.59;100.00
29315;BME280;16320;53.954;9.506;2024-03-29T01:44:07;99083.03;;;6.57;100.00
29315;BME280;16320;53.954;9.506;2024-03-29T01:46:36;99086.00;;;6.51;100.00
29315;BME280;16320;53.954;9.506;2024-03-29T01:49:05;99088.44;;;6.54;100.00
29315;BME280;16320;53.954;9.506;2024-03-29T01:51:36;99096.34;;;6.52;100.00
29315;BME280;16320;53.954;9.506;2024-03-29T01:54:04;99094.03;;;6.48;100.00
29315;BME280;16320;53.954;9.506;2024-03-29T01:56:32;99093.09;;;6.49;100.00
29315;BME280;16320;53.954;9.506;2024-03-29T01:59:03;99089.94;;;6.44;100.00
29315;BME280;16320;53.954;9.506;2024-03-29T02:01:31;99097.75;;;6.44;100.00
29315;BME280;16320;53.954;9.506;2024-03-29T02:03:59;99101.09;;;6.46;100.00
29315;BME280;16320;53.954;9.506;2024-03-29T02:06:26;99100.19;;;6.47;100.00
29315;BME280;16320;53.954;9.506;2024-03-29T02:08:54;99107.34;;;6.43;100.00
29315;BME280;16320;53.954;9.506;2024-03-29T02:11:21;99094.28;;;6.43;100.00
29315;BME280;16320;53.954;9.506;2024-03-29T02:13:50;99107.41;;;6.41;100.00
29315;BME280;16320;53.954;9.506;2024-03-29T02:16:18;99107.34;;;6.43;100.00
29315;BME280;16320;53.954;9.506;2024-03-29T02:18:46;99098.69;;;6.43;100.00
29315;BME280;16320;53.954;9.506;2024-03-29T02:21:13;99108.09;;;6.45;100.00
29315;BME280;16320;53.954;9.506;2024-03-29T02:23:43;99102.88;;;6.45;100.00
29315;BME280;16320;53.954;9.506;2024-03-29T02:26:12;99106.31;;;6.46;100.00
29315;BME280;16320;53.954;9.506;2024-03-29T02:28:40;99102.78;;;6.47;100.00
29315;BME280;16320;53.954;9.506;2024-03-29T02:31:07;99103.91;;;6.43;100.00
29315;BME280;16320;53.954;9.506;2024-03-29T02:33:35;99097.75;;;6.44;100.00
29315;BME280;16320;53.954;9.506;2024-03-29T02:36:02;99097.75;;;6.44;100.00
29315;BME280;16320;53.954;9.506;2024-03-29T02:38:29;99108.28;;;6.42;100.00
29315;BME280;16320;53.954;9.506;2024-03-29T02:40:56;99105.75;;;6.40;100.00
29315;BME280;16320;53.954;9.506;2024-03-29T02:43:23;99103.34;;;6.37;100.00
29315;BME280;16320;53.954;9.506;2024-03-29T02:45:51;99107.59;;;6.38;100.00
29315;BME280;16320;53.954;9.506;2024-03-29T02:48:17;99114.69;;;6.36;100.00
29315;BME280;16320;53.954;9.506;2024-03-29T02:50:44;99111.34;;;6.34;100.00
29315;BME280;16320;53.954;9.506;2024-03-29T02:53:10;99106.22;;;6.33;100.00
29315;BME280;16320;53.954;9.506;2024-03-29T02:55:37;99107.13;;;6.32;100.00
29315;BME280;16320;53.954;9.506;2024-03-29T02:58:03;99113.94;;;6.34;100.00
29315;BME280;16320;53.954;9.506;2024-03-29T03:00:31;99114.69;;;6.36;100.00
29315;BME280;16320;53.954;9.506;2024-03-29T03:02:57;99108.75;;;6.34;100.00
29315;BME280;16320;53.954;9.506;2024-03-29T03:05:25;99109.47;;;6.36;100.00
29315;BME280;16320;53.954;9.506;2024-03-29T03:07:51;99101.47;;;6.39;100.00
29315;BME280;16320;53.954;9.506;2024-03-29T03:10:35;99103.25;;;6.39;100.00
29315;BME280;16320;53.954;9.506;2024-03-29T03:13:21;99089.34;;;6.38;100.00
29315;BME280;16320;53.954;9.506;2024-03-29T03:15:49;99082.28;;;6.40;100.00
29315;BME280;16320;53.954;9.506;2024-03-29T03:18:15;99078.91;;;6.38;100.00
29315;BME280;16320;53.954;9.506;2024-03-29T03:20:42;99069.63;;;6.34;100.00
29315;BME280;16320;53.954;9.506;2024-03-29T03:23:08;99066.84;;;6.37;100.00
29315;BME280;16320;53.954;9.506;2024-03-29T03:25:35;99069.53;;;6.36;100.00
29315;BME280;16320;53.954;9.506;2024-03-29T03:28:02;99064.22;;;6.37;100.00
29315;BME280;16320;53.954;9.506;2024-03-29T03:30:29;99061.63;;;6.37;100.00
29315;BME280;16320;53.954;9.506;2024-03-29T03:32:58;99055.34;;;6.40;100.00
29315;BME280;16320;53.954;9.506;2024-03-29T03:35:26;99047.63;;;6.38;100.00
29315;BME280;16320;53.954;9.506;2024-03-29T03:37:52;99051.19;;;6.37;100.00
29315;BME280;16320;53.954;9.506;2024-03-29T03:40:19;99045.97;;;6.37;100.00
29315;BME280;16320;53.954;9.506;2024-03-29T03:42:46;99050.22;;;6.38;100.00
29315;BME280;16320;53.954;9.506;2024-03-29T03:45:13;99055.44;;;6.38;100.00
29315;BME280;16320;53.954;9.506;2024-03-29T03:47:40;99061.44;;;6.40;100.00
29315;BME280;16320;53.954;9.506;2024-03-29T03:50:08;99063.84;;;6.44;100.00
29315;BME280;16320;53.954;9.506;2024-03-29T03:52:35;99065.31;;;6.48;100.00
29315;BME280;16320;53.954;9.506;2024-03-29T03:55:02;99078.19;;;6.51;100.00
29315;BME280;16320;53.954;9.506;2024-03-29T03:57:28;99080.97;;;6.48;100.00
29315;BME280;16320;53.954;9.506;2024-03-29T03:59:55;99085.28;;;6.49;100.00
29315;BME280;16320;53.954;9.506;2024-03-29T04:02:22;99075.75;;;6.48;100.00
29315;BME280;16320;53.954;9.506;2024-03-29T04:04:49;99080.25;;;6.46;100.00
29315;BME280;16320;53.954;9.506;2024-03-29T04:07:16;99081.16;;;6.45;100.00
29315;BME280;16320;53.954;9.506;2024-03-29T04:09:43;99079.78;;;6.53;100.00
29315;BME280;16320;53.954;9.506;2024-03-29T04:12:09;99066.84;;;6.52;100.00
29315;BME280;16320;53.954;9.506;2024-03-29T04:14:37;99077.25;;;6.52;100.00
29315;BME280;16320;53.954;9.506;2024-03-29T04:17:05;99077.81;;;6.57;100.00
29315;BME280;16320;53.954;9.506;2024-03-29T04:19:32;99083.88;;;6.57;100.00
29315;BME280;16320;53.954;9.506;2024-03-29T04:21:58;99077.19;;;6.53;100.00
29315;BME280;16320;53.954;9.506;2024-03-29T04:24:28;99063.09;;;6.56;100.00
29315;BME280;16320;53.954;9.506;2024-03-29T04:26:55;99060.28;;;6.59;100.00
29315;BME280;16320;53.954;9.506;2024-03-29T04:29:23;99058.63;;;6.58;100.00
29315;BME280;16320;53.954;9.506;2024-03-29T04:31:49;99063.84;;;6.58;100.00
29315;BME280;16320;53.954;9.506;2024-03-29T04:34:16;99057.59;;;6.60;100.00
29315;BME280;16320;53.954;9.506;2024-03-29T04:36:43;99061.13;;;6.59;100.00
29315;BME280;16320;53.954;9.506;2024-03-29T04:39:10;99061.03;;;6.61;100.00
29315;BME280;16320;53.954;9.506;2024-03-29T04:41:37;99055.91;;;6.59;100.00
29315;BME280;16320;53.954;9.506;2024-03-29T04:44:04;99056.75;;;6.60;100.00
29315;BME280;16320;53.954;9.506;2024-03-29T04:46:33;99051.72;;;6.57;100.00
29315;BME280;16320;53.954;9.506;2024-03-29T04:49:00;99060.28;;;6.59;100.00
29315;BME280;16320;53.954;9.506;2024-03-29T04:51:29;99053.28;;;6.59;100.00
29315;BME280;16320;53.954;9.506;2024-03-29T04:53:56;99058.63;;;6.58;100.00
29315;BME280;16320;53.954;9.506;2024-03-29T04:56:23;99071.09;;;6.53;100.00
29315;BME280;16320;53.954;9.506;2024-03-29T04:58:51;99076.91;;;6.58;100.00
29315;BME280;16320;53.954;9.506;2024-03-29T05:01:18;99062.16;;;6.57;100.00
29315;BME280;16320;53.954;9.506;2024-03-29T05:03:45;99065.59;;;6.57;100.00
29315;BME280;16320;53.954;9.506;2024-03-29T05:06:12;99082.00;;;6.59;100.00
29315;BME280;16320;53.954;9.506;2024-03-29T05:08:39;99079.50;;;6.58;100.00
29315;BME280;16320;53.954;9.506;2024-03-29T05:11:06;99074.28;;;6.58;100.00
29315;BME280;16320;53.954;9.506;2024-03-29T05:13:36;99089.06;;;6.57;100.00
29315;BME280;16320;53.954;9.506;2024-03-29T05:16:05;99084.50;;;6.61;100.00
29315;BME280;16320;53.954;9.506;2024-03-29T05:18:32;99090.50;;;6.63;100.00
29315;BME280;16320;53.954;9.506;2024-03-29T05:20:59;99094.94;;;6.61;100.00
29315;BME280;16320;53.954;9.506;2024-03-29T05:23:27;99084.31;;;6.64;100.00
29315;BME280;16320;53.954;9.506;2024-03-29T05:25:55;99091.31;;;6.64;100.00
29315;BME280;16320;53.954;9.506;2024-03-29T05:28:23;99099.78;;;6.67;100.00
29315;BME280;16320;53.954;9.506;2024-03-29T05:30:50;99093.09;;;6.63;100.00
29315;BME280;16320;53.954;9.506;2024-03-29T05:33:17;99093.66;;;6.68;100.00
29315;BME280;16320;53.954;9.506;2024-03-29T05:35:44;99100.34;;;6.72;100.00
29315;BME280;16320;53.954;9.506;2024-03-29T05:38:12;99093.19;;;6.76;100.00
29315;BME280;16320;53.954;9.506;2024-03-29T05:40:39;99084.41;;;6.77;100.00
29315;BME280;16320;53.954;9.506;2024-03-29T05:43:06;99097.16;;;6.82;100.00
29315;BME280;16320;53.954;9.506;2024-03-29T05:45:33;99105.72;;;6.84;100.00
29315;BME280;16320;53.954;9.506;2024-03-29T05:48:01;99116.94;;;6.86;100.00
29315;BME280;16320;53.954;9.506;2024-03-29T05:50:28;99110.38;;;6.93;100.00
29315;BME280;16320;53.954;9.506;2024-03-29T05:52:55;99108.50;;;6.95;100.00
29315;BME280;16320;53.954;9.506;2024-03-29T05:55:25;99116.16;;;6.98;100.00
29315;BME280;16320;53.954;9.506;2024-03-29T05:57:52;99106.44;;;7.00;100.00
29315;BME280;16320;53.954;9.506;2024-03-29T06:00:19;99114.94;;;7.04;100.00
29315;BME280;16320;53.954;9.506;2024-03-29T06:02:47;99110.75;;;7.01;100.00
29315;BME280;16320;53.954;9.506;2024-03-29T06:05:14;99111.28;;;7.06;100.00
29315;BME280;16320;53.954;9.506;2024-03-29T06:07:41;99112.34;;;7.04;100.00
29315;BME280;16320;53.954;9.506;2024-03-29T06:10:09;99117.91;;;7.12;100.00
29315;BME280;16320;53.954;9.506;2024-03-29T06:12:37;99124.88;;;7.11;100.00
29315;BME280;16320;53.954;9.506;2024-03-29T06:15:07;99121.53;;;7.09;100.00
29315;BME280;16320;53.954;9.506;2024-03-29T06:17:54;99126.56;;;7.12;100.00
29315;BME280;16320;53.954;9.506;2024-03-29T06:20:22;99124.50;;;7.18;100.00
29315;BME280;16320;53.954;9.506;2024-03-29T06:22:52;99123.88;;;7.14;100.00
29315;BME280;16320;53.954;9.506;2024-03-29T06:25:19;99130.47;;;7.20;100.00
29315;BME280;16320;53.954;9.506;2024-03-29T06:27:47;99137.38;;;7.21;100.00
29315;BME280;16320;53.954;9.506;2024-03-29T06:30:15;99128.41;;;7.25;100.00
29315;BME280;16320;53.954;9.506;2024-03-29T06:32:43;99129.88;;;7.29;100.00
29315;BME280;16320;53.954;9.506;2024-03-29T06:35:12;99133.03;;;7.34;100.00
29315;BME280;16320;53.954;9.506;2024-03-29T06:37:39;99145.38;;;7.32;100.00
29315;BME280;16320;53.954;9.506;2024-03-29T06:40:10;99147.97;;;7.32;100.00
29315;BME280;16320;53.954;9.506;2024-03-29T06:42:38;99144.16;;;7.38;100.00
29315;BME280;16320;53.954;9.506;2024-03-29T06:45:06;99146.34;;;7.44;100.00
29315;BME280;16320;53.954;9.506;2024-03-29T06:47:33;99126.59;;;7.40;100.00
29315;BME280;16320;53.954;9.506;2024-03-29T06:50:03;99123.03;;;7.41;100.00
29315;BME280;16320;53.954;9.506;2024-03-29T06:52:37;99120.03;;;7.47;100.00
29315;BME280;16320;53.954;9.506;2024-03-29T06:55:05;99122.53;;;7.48;100.00
29315;BME280;16320;53.954;9.506;2024-03-29T06:57:32;99116.31;;;7.51;100.00
29315;BME280;16320;53.954;9.506;2024-03-29T07:00:02;99119.84;;;7.50;100.00
29315;BME280;16320;53.954;9.506;2024-03-29T07:02:30;99143.06;;;7.55;100.00
29315;BME280;16320;53.954;9.506;2024-03-29T07:04:57;99144.56;;;7.59;100.00
29315;BME280;16320;53.954;9.506;2024-03-29T07:07:32;99135.38;;;7.66;100.00
29315;BME280;16320;53.954;9.506;2024-03-29T07:09:59;99139.81;;;7.78;100.00
29315;BME280;16320;53.954;9.506;2024-03-29T07:12:27;99134.44;;;7.80;100.00
29315;BME280;16320;53.954;9.506;2024-03-29T07:14:54;99149.19;;;7.81;100.00
29315;BME280;16320;53.954;9.506;2024-03-29T07:17:21;99153.41;;;7.83;100.00
29315;BME280;16320;53.954;9.506;2024-03-29T07:19:49;99149.63;;;7.87;100.00
29315;BME280;16320;53.954;9.506;2024-03-29T07:22:16;99141.50;;;7.92;100.00
29315;BME280;16320;53.954;9.506;2024-03-29T07:24:48;99144.63;;;7.97;100.00
29315;BME280;16320;53.954;9.506;2024-03-29T07:27:15;99143.19;;;7.93;100.00
29315;BME280;16320;53.954;9.506;2024-03-29T07:29:43;99145.16;;;8.02;100.00
29315;BME280;16320;53.954;9.506;2024-03-29T07:32:11;99165.97;;;8.04;100.00
29315;BME280;16320;53.954;9.506;2024-03-29T07:34:39;99160.56;;;8.07;100.00
29315;BME280;16320;53.954;9.506;2024-03-29T07:37:06;99160.34;;;8.10;100.00
29315;BME280;16320;53.954;9.506;2024-03-29T07:39:35;99164.03;;;8.07;100.00
29315;BME280;16320;53.954;9.506;2024-03-29T07:42:02;99166.00;;;8.17;100.00
29315;BME280;16320;53.954;9.506;2024-03-29T07:44:30;99183.09;;;8.22;100.00
29315;BME280;16320;53.954;9.506;2024-03-29T07:46:57;99183.81;;;8.24;100.00
29315;BME280;16320;53.954;9.506;2024-03-29T07:49:24;99195.97;;;8.25;100.00
29315;BME280;16320;53.954;9.506;2024-03-29T07:51:51;99198.69;;;8.37;100.00
29315;BME280;16320;53.954;9.506;2024-03-29T07:54:19;99201.22;;;8.38;100.00
29315;BME280;16320;53.954;9.506;2024-03-29T07:56:47;99206.47;;;8.51;100.00
29315;BME280;16320;53.954;9.506;2024-03-29T07:59:15;99185.97;;;8.58;100.00
29315;BME280;16320;53.954;9.506;2024-03-29T08:01:45;99202.50;;;8.58;100.00
29315;BME280;16320;53.954;9.506;2024-03-29T08:04:12;99210.88;;;8.64;100.00
29315;BME280;16320;53.954;9.506;2024-03-29T08:06:39;99211.94;;;8.74;100.00
29315;BME280;16320;53.954;9.506;2024-03-29T08:09:06;99217.81;;;8.77;100.00
29315;BME280;16320;53.954;9.506;2024-03-29T08:11:35;99220.63;;;8.87;100.00
29315;BME280;16320;53.954;9.506;2024-03-29T08:14:02;99212.25;;;8.82;100.00
29315;BME280;16320;53.954;9.506;2024-03-29T08:16:29;99220.28;;;8.92;100.00
29315;BME280;16320;53.954;9.506;2024-03-29T08:18:57;99241.78;;;8.84;100.00
29315;BME280;16320;53.954;9.506;2024-03-29T08:21:24;99242.50;;;8.86;100.00
29315;BME280;16320;53.954;9.506;2024-03-29T08:23:53;99248.38;;;8.90;100.00
29315;BME280;16320;53.954;9.506;2024-03-29T08:26:22;99257.59;;;8.95;100.00
29315;BME280;16320;53.954;9.506;2024-03-29T08:28:50;99245.03;;;9.01;100.00
29315;BME280;16320;53.954;9.506;2024-03-29T08:31:17;99266.81;;;9.01;100.00
29315;BME280;16320;53.954;9.506;2024-03-29T08:33:44;99262.84;;;9.08;100.00
29315;BME280;16320;53.954;9.506;2024-03-29T08:36:12;99264.50;;;9.09;100.00
29315;BME280;16320;53.954;9.506;2024-03-29T08:38:39;99273.94;;;9.12;100.00
29315;BME280;16320;53.954;9.506;2024-03-29T08:41:09;99284.50;;;9.23;100.00
29315;BME280;16320;53.954;9.506;2024-03-29T08:43:37;99291.19;;;9.27;100.00
29315;BME280;16320;53.954;9.506;2024-03-29T08:46:04;99280.53;;;9.18;100.00
29315;BME280;16320;53.954;9.506;2024-03-29T08:48:35;99271.84;;;9.17;100.00
29315;BME280;16320;53.954;9.506;2024-03-29T08:51:05;99273.53;;;9.18;100.00
29315;BME280;16320;53.954;9.506;2024-03-29T08:53:33;99266.59;;;9.17;100.00
29315;BME280;16320;53.954;9.506;2024-03-29T08:56:00;99258.00;;;9.15;100.00
29315;BME280;16320;53.954;9.506;2024-03-29T08:58:27;99264.09;;;9.03;100.00
29315;BME280;16320;53.954;9.506;2024-03-29T09:00:55;99253.59;;;9.03;100.00
29315;BME280;16320;53.954;9.506;2024-03-29T09:03:23;99255.72;;;8.97;100.00
29315;BME280;16320;53.954;9.506;2024-03-29T09:05:51;99255.72;;;8.97;100.00
29315;BME280;16320;53.954;9.506;2024-03-29T09:08:18;99266.59;;;8.91;100.00
29315;BME280;16320;53.954;9.506;2024-03-29T09:10:46;99275.81;;;8.84;100.00
29315;BME280;16320;53.954;9.506;2024-03-29T09:13:13;99273.94;;;8.86;100.00
29315;BME280;16320;53.954;9.506;2024-03-29T09:15:40;99281.06;;;8.84;100.00
29315;BME280;16320;53.954;9.506;2024-03-29T09:18:08;99283.78;;;8.83;100.00
29315;BME280;16320;53.954;9.506;2024-03-29T09:20:59;99284.41;;;8.86;100.00
29315;BME280;16320;53.954;9.506;2024-03-29T09:23:28;99276.97;;;8.80;100.00
29315;BME280;16320;53.954;9.506;2024-03-29T09:25:56;99281.25;;;8.81;100.00
29315;BME280;16320;53.954;9.506;2024-03-29T09:28:24;99284.72;;;8.82;100.00
29315;BME280;16320;53.954;9.506;2024-03-29T09:30:58;99270.06;;;8.79;100.00
29315;BME280;16320;53.954;9.506;2024-03-29T09:33:25;99269.72;;;8.84;100.00
29315;BME280;16320;53.954;9.506;2024-03-29T09:35:52;99278.53;;;8.83;100.00
29315;BME280;16320;53.954;9.506;2024-03-29T09:38:21;99279.16;;;8.86;100.00
29315;BME280;16320;53.954;9.506;2024-03-29T09:41:19;99268.28;;;8.92;100.00
29315;BME280;16320;53.954;9.506;2024-03-29T09:43:48;99268.81;;;8.97;100.00
29315;BME280;16320;53.954;9.506;2024-03-29T09:46:16;99268.28;;;9.05;100.00
29315;BME280;16320;53.954;9.506;2024-03-29T09:48:45;99265.47;;;9.08;100.00
29315;BME280;16320;53.954;9.506;2024-03-29T09:51:14;99264.38;;;9.11;100.00
29315;BME280;16320;53.954;9.506;2024-03-29T09:53:43;99266.59;;;9.17;100.00
29315;BME280;16320;53.954;9.506;2024-03-29T09:56:10;99261.78;;;9.24;100.00
29315;BME280;16320;53.954;9.506;2024-03-29T09:58:38;99247.19;;;9.32;100.00
29315;BME280;16320;53.954;9.506;2024-03-29T10:03:57;99245.63;;;9.30;100.00
29315;BME280;16320;53.954;9.506;2024-03-29T10:06:28;99228.41;;;9.39;100.00
29315;BME280;16320;53.954;9.506;2024-03-29T10:08:57;99228.50;;;9.50;100.00
29315;BME280;16320;53.954;9.506;2024-03-29T10:11:26;99235.50;;;9.62;100.00
29315;BME280;16320;53.954;9.506;2024-03-29T10:13:54;99212.84;;;9.61;100.00
29315;BME280;16320;53.954;9.506;2024-03-29T10:16:24;99218.34;;;9.69;100.00
29315;BME280;16320;53.954;9.506;2024-03-29T10:18:52;99230.81;;;9.79;100.00
29315;BME280;16320;53.954;9.506;2024-03-29T10:21:25;99230.38;;;9.85;100.00
29315;BME280;16320;53.954;9.506;2024-03-29T10:23:54;99217.53;;;9.93;100.00
29315;BME280;16320;53.954;9.506;2024-03-29T10:26:22;99213.13;;;9.94;100.00
29315;BME280;16320;53.954;9.506;2024-03-29T10:28:49;99207.06;;;9.93;100.00
29315;BME280;16320;53.954;9.506;2024-03-29T10:31:17;99202.84;;;9.90;100.00
29315;BME280;16320;53.954;9.506;2024-03-29T10:33:46;99194.81;;;9.81;100.00
29315;BME280;16320;53.954;9.506;2024-03-29T10:36:16;99198.91;;;9.85;100.00
29315;BME280;16320;53.954;9.506;2024-03-29T10:38:44;99188.91;;;9.90;100.00
29315;BME280;16320;53.954;9.506;2024-03-29T10:41:13;99195.31;;;9.86;100.00
29315;BME280;16320;53.954;9.506;2024-03-29T10:43:44;99197.00;;;9.87;100.00
29315;BME280;16320;53.954;9.506;2024-03-29T10:46:14;99209.28;;;9.86;100.00
29315;BME280;16320;53.954;9.506;2024-03-29T10:48:49;99219.66;;;9.88;100.00
29315;BME280;16320;53.954;9.506;2024-03-29T10:51:19;99205.31;;;9.81;100.00
29315;BME280;16320;53.954;9.506;2024-03-29T10:54:01;99202.91;;;9.78;100.00
29315;BME280;16320;53.954;9.506;2024-03-29T10:56:37;99195.78;;;9.80;100.00
29315;BME280;16320;53.954;9.506;2024-03-29T11:02:12;99209.63;;;9.82;100.00
29315;BME280;16320;53.954;9.506;2024-03-29T11:04:41;99210.13;;;9.87;100.00
29315;BME280;16320;53.954;9.506;2024-03-29T11:07:18;99207.06;;;9.93;100.00
29315;BME280;16320;53.954;9.506;2024-03-29T11:09:52;99214.19;;;9.91;100.00
29315;BME280;16320;53.954;9.506;2024-03-29T11:12:23;99208.72;;;9.94;100.00
29315;BME280;16320;53.954;9.506;2024-03-29T11:15:16;99197.28;;;9.95;100.00
29315;BME280;16320;53.954;9.506;2024-03-29T11:17:47;99204.69;;;10.01;100.00
29315;BME280;16320;53.954;9.506;2024-03-29T11:20:18;99218.91;;;10.10;100.00
29315;BME280;16320;53.954;9.506;2024-03-29T11:23:04;99231.91;;;10.12;100.00
29315;BME280;16320;53.954;9.506;2024-03-29T11:25:46;99240.50;;;10.14;100.00
29315;BME280;16320;53.954;9.506;2024-03-29T11:28:34;99226.94;;;10.20;100.00
29315;BME280;16320;53.954;9.506;2024-03-29T11:31:08;99230.75;;;10.16;100.00
29315;BME280;16320;53.954;9.506;2024-03-29T11:36:32;99228.19;;;10.27;100.00
29315;BME280;16320;53.954;9.506;2024-03-29T11:39:00;99221.53;;;10.34;100.00
29315;BME280;16320;53.954;9.506;2024-03-29T11:41:28;99205.56;;;10.37;100.00
29315;BME280;16320;53.954;9.506;2024-03-29T11:43:58;99208.44;;;10.46;100.00
29315;BME280;16320;53.954;9.506;2024-03-29T11:46:28;99207.03;;;10.64;100.00
29315;BME280;16320;53.954;9.506;2024-03-29T11:49:02;99207.69;;;10.90;100.00
29315;BME280;16320;53.954;9.506;2024-03-29T11:51:29;99195.03;;;11.18;100.00
29315;BME280;16320;53.954;9.506;2024-03-29T11:53:59;99193.22;;;11.30;100.00
29315;BME280;16320;53.954;9.506;2024-03-29T11:56:36;99181.47;;;11.45;100.00
29315;BME280;16320;53.954;9.506;2024-03-29T11:59:39;99165.16;;;11.74;100.00
29315;BME280;16320;53.954;9.506;2024-03-29T12:02:12;99169.00;;;11.70;100.00
29315;BME280;16320;53.954;9.506;2024-03-29T12:04:41;99171.00;;;11.78;100.00
29315;BME280;16320;53.954;9.506;2024-03-29T12:07:10;99176.31;;;11.87;100.00
29315;BME280;16320;53.954;9.506;2024-03-29T12:09:38;99162.66;;;12.05;100.00
29315;BME280;16320;53.954;9.506;2024-03-29T12:12:06;99169.94;;;12.13;100.00
29315;BME280;16320;53.954;9.506;2024-03-29T12:14:38;99173.88;;;12.07;100.00
29315;BME280;16320;53.954;9.506;2024-03-29T12:17:12;99181.53;;;12.10;100.00
29315;BME280;16320;53.954;9.506;2024-03-29T12:19:39;99187.56;;;12.01;100.00
29315;BME280;16320;53.954;9.506;2024-03-29T12:22:10;99159.84;;;11.97;100.00
29315;BME280;16320;53.954;9.506;2024-03-29T12:24:38;99176.84;;;11.81;100.00
29315;BME280;16320;53.954;9.506;2024-03-29T12:27:05;99185.81;;;11.79;100.00
29315;BME280;16320;53.954;9.506;2024-03-29T12:29:34;99180.69;;;11.77;100.00
29315;BME280;16320;53.954;9.506;2024-03-29T12:32:02;99200.31;;;11.73;100.00
29315;BME280;16320;53.954;9.506;2024-03-29T12:34:31;99205.81;;;11.70;100.00
29315;BME280;16320;53.954;9.506;2024-03-29T12:36:58;99203.91;;;11.72;100.00
29315;BME280;16320;53.954;9.506;2024-03-29T12:39:25;99188.84;;;11.63;100.00
29315;BME280;16320;53.954;9.506;2024-03-29T12:41:56;99199.34;;;11.74;100.00
29315;BME280;16320;53.954;9.506;2024-03-29T12:44:37;99204.22;;;11.79;100.00
29315;BME280;16320;53.954;9.506;2024-03-29T12:47:31;99213.94;;;11.67;100.00
29315;BME280;16320;53.954;9.506;2024-03-29T12:50:32;99197.97;;;11.59;100.00
29315;BME280;16320;53.954;9.506;2024-03-29T12:53:05;99197.34;;;11.55;100.00
29315;BME280;16320;53.954;9.506;2024-03-29T12:55:33;99197.50;;;11.53;100.00
29315;BME280;16320;53.954;9.506;2024-03-29T12:58:03;99203.47;;;11.56;100.00
29315;BME280;16320;53.954;9.506;2024-03-29T13:00:34;99211.31;;;11.67;100.00
29315;BME280;16320;53.954;9.506;2024-03-29T13:03:05;99215.38;;;11.71;100.00
29315;BME280;16320;53.954;9.506;2024-03-29T13:05:32;99225.75;;;11.72;100.00
29315;BME280;16320;53.954;9.506;2024-03-29T13:08:04;99237.38;;;11.70;100.00
29315;BME280;16320;53.954;9.506;2024-03-29T13:10:33;99251.00;;;11.75;100.00
29315;BME280;16320;53.954;9.506;2024-03-29T13:13:02;99248.59;;;11.72;100.00
29315;BME280;16320;53.954;9.506;2024-03-29T13:15:33;99245.72;;;11.75;100.00